sensor_id;sensor_type;location;lat;lon;timestamp;temperature;humidity
67555;HTU21D;54385;53.516;49.456;2023-03-30T00:00:56;6.19;63.73
67555;HTU21D;54385;53.516;49.456;2023-03-30T00:03:24;6.16;63.76
67555;HTU21D;54385;53.516;49.456;2023-03-30T00:05:53;6.10;63.79
67555;HTU21D;54385;53.516;49.456;2023-03-30T00:08:25;6.05;64.39
67555;HTU21D;54385;53.516;49.456;2023-03-30T00:11:13;6.05;64.34
67555;HTU21D;54385;53.516;49.456;2023-03-30T00:13:41;5.95;64.33
67555;HTU21D;54385;53.516;49.456;2023-03-30T00:16:09;6.00;64.33
67555;HTU21D;54385;53.516;49.456;2023-03-30T00:18:36;5.99;64.12
67555;HTU21D;54385;53.516;49.456;2023-03-30T00:21:05;5.96;64.28
67555;HTU21D;54385;53.516;49.456;2023-03-30T00:23:32;5.95;64.30
67555;HTU21D;54385;53.516;49.456;2023-03-30T00:25:59;5.92;64.36
67555;HTU21D;54385;53.516;49.456;2023-03-30T00:28:25;5.87;64.43
67555;HTU21D;54385;53.516;49.456;2023-03-30T00:30:52;5.82;64.47
67555;HTU21D;54385;53.516;49.456;2023-03-30T00:33:19;5.77;65.22
67555;HTU21D;54385;53.516;49.456;2023-03-30T00:35:56;5.80;64.96
67555;HTU21D;54385;53.516;49.456;2023-03-30T00:38:24;5.83;64.69
67555;HTU21D;54385;53.516;49.456;2023-03-30T00:40:58;5.82;64.12
67555;HTU21D;54385;53.516;49.456;2023-03-30T00:43:25;5.78;64.43
67555;HTU21D;54385;53.516;49.456;2023-03-30T00:45:52;5.69;64.66
67555;HTU21D;54385;53.516;49.456;2023-03-30T00:48:24;5.64;64.59
67555;HTU21D;54385;53.516;49.456;2023-03-30T00:51:01;5.69;64.47
67555;HTU21D;54385;53.516;49.456;2023-03-30T00:53:41;5.78;64.21
67555;HTU21D;54385;53.516;49.456;2023-03-30T00:56:10;5.71;64.24
67555;HTU21D;54385;53.516;49.456;2023-03-30T00:58:40;5.72;64.21
67555;HTU21D;54385;53.516;49.456;2023-03-30T01:01:11;5.75;64.19
67555;HTU21D;54385;53.516;49.456;2023-03-30T01:03:43;5.70;64.44
67555;HTU21D;54385;53.516;49.456;2023-03-30T01:06:11;5.70;64.13
67555;HTU21D;54385;53.516;49.456;2023-03-30T01:08:38;5.54;64.66
67555;HTU21D;54385;53.516;49.456;2023-03-30T01:11:06;5.55;64.69
67555;HTU21D;54385;53.516;49.456;2023-03-30T01:13:36;5.61;64.71
67555;HTU21D;54385;53.516;49.456;2023-03-30T01:18:54;5.62;64.39
67555;HTU21D;54385;53.516;49.456;2023-03-30T01:26:50;5.56;64.37
67555;HTU21D;54385;53.516;49.456;2023-03-30T01:37:54;5.48;64.69
67555;HTU21D;54385;53.516;49.456;2023-03-30T01:41:10;5.49;64.46
67555;HTU21D;54385;53.516;49.456;2023-03-30T01:43:16;5.51;64.45
67555;HTU21D;54385;53.516;49.456;2023-03-30T01:46:02;5.55;64.56
67555;HTU21D;54385;53.516;49.456;2023-03-30T01:48:40;5.55;64.18
67555;HTU21D;54385;53.516;49.456;2023-03-30T01:51:16;5.54;64.14
67555;HTU21D;54385;53.516;49.456;2023-03-30T01:53:54;5.46;64.11
67555;HTU21D;54385;53.516;49.456;2023-03-30T01:56:26;5.48;64.34
67555;HTU21D;54385;53.516;49.456;2023-03-30T01:59:00;5.45;64.38
67555;HTU21D;54385;53.516;49.456;2023-03-30T02:01:28;5.45;64.25
67555;HTU21D;54385;53.516;49.456;2023-03-30T02:03:59;5.45;64.11
67555;HTU21D;54385;53.516;49.456;2023-03-30T02:06:33;5.45;64.11
67555;HTU21D;54385;53.516;49.456;2023-03-30T02:09:06;5.41;64.26
67555;HTU21D;54385;53.516;49.456;2023-03-30T02:11:34;5.45;63.75
67555;HTU21D;54385;53.516;49.456;2023-03-30T02:14:04;5.45;63.76
67555;HTU21D;54385;53.516;49.456;2023-03-30T02:16:36;5.46;63.85
67555;HTU21D;54385;53.516;49.456;2023-03-30T02:19:03;5.41;63.82
67555;HTU21D;54385;53.516;49.456;2023-03-30T02:21:32;5.39;63.83
67555;HTU21D;54385;53.516;49.456;2023-03-30T02:24:00;5.38;63.80
67555;HTU21D;54385;53.516;49.456;2023-03-30T02:26:28;5.40;63.78
67555;HTU21D;54385;53.516;49.456;2023-03-30T02:28:55;5.38;63.90
67555;HTU21D;54385;53.516;49.456;2023-03-30T02:31:22;5.36;63.79
67555;HTU21D;54385;53.516;49.456;2023-03-30T02:39:37;5.43;63.38
67555;HTU21D;54385;53.516;49.456;2023-03-30T02:48:44;5.53;62.82
67555;HTU21D;54385;53.516;49.456;2023-03-30T02:51:38;5.67;62.34
67555;HTU21D;54385;53.516;49.456;2023-03-30T02:56:49;5.77;61.70
67555;HTU21D;54385;53.516;49.456;2023-03-30T02:59:27;5.72;61.80
67555;HTU21D;54385;53.516;49.456;2023-03-30T03:02:15;5.66;62.01
67555;HTU21D;54385;53.516;49.456;2023-03-30T03:04:46;5.59;62.22
67555;HTU21D;54385;53.516;49.456;2023-03-30T03:07:15;5.59;62.18
67555;HTU21D;54385;53.516;49.456;2023-03-30T03:09:41;5.63;61.99
67555;HTU21D;54385;53.516;49.456;2023-03-30T03:12:08;5.64;61.93
67555;HTU21D;54385;53.516;49.456;2023-03-30T03:14:34;5.57;62.06
67555;HTU21D;54385;53.516;49.456;2023-03-30T03:17:01;5.64;62.34
67555;HTU21D;54385;53.516;49.456;2023-03-30T03:19:27;5.61;61.99
67555;HTU21D;54385;53.516;49.456;2023-03-30T03:21:53;5.63;62.08
67555;HTU21D;54385;53.516;49.456;2023-03-30T03:24:20;5.64;62.24
67555;HTU21D;54385;53.516;49.456;2023-03-30T03:26:46;5.65;61.45
67555;HTU21D;54385;53.516;49.456;2023-03-30T03:29:13;5.64;61.53
67555;HTU21D;54385;53.516;49.456;2023-03-30T03:31:47;5.76;61.52
67555;HTU21D;54385;53.516;49.456;2023-03-30T03:34:13;5.72;61.34
67555;HTU21D;54385;53.516;49.456;2023-03-30T03:36:40;5.77;60.98
67555;HTU21D;54385;53.516;49.456;2023-03-30T03:39:08;5.82;60.91
67555;HTU21D;54385;53.516;49.456;2023-03-30T03:41:34;5.78;60.97
67555;HTU21D;54385;53.516;49.456;2023-03-30T03:44:01;5.79;60.43
67555;HTU21D;54385;53.516;49.456;2023-03-30T03:46:27;5.80;60.35
67555;HTU21D;54385;53.516;49.456;2023-03-30T03:48:54;5.90;60.31
67555;HTU21D;54385;53.516;49.456;2023-03-30T03:51:21;5.99;60.10
67555;HTU21D;54385;53.516;49.456;2023-03-30T03:53:48;6.09;59.79
67555;HTU21D;54385;53.516;49.456;2023-03-30T03:56:18;6.23;59.37
67555;HTU21D;54385;53.516;49.456;2023-03-30T03:58:48;6.24;59.01
67555;HTU21D;54385;53.516;49.456;2023-03-30T04:01:15;6.22;58.90
67555;HTU21D;54385;53.516;49.456;2023-03-30T04:03:42;6.24;58.87
67555;HTU21D;54385;53.516;49.456;2023-03-30T04:06:09;6.31;58.80
67555;HTU21D;54385;53.516;49.456;2023-03-30T04:08:40;6.42;58.80
67555;HTU21D;54385;53.516;49.456;2023-03-30T04:11:10;6.53;58.17
67555;HTU21D;54385;53.516;49.456;2023-03-30T04:13:38;6.70;57.94
67555;HTU21D;54385;53.516;49.456;2023-03-30T04:16:08;6.73;57.39
67555;HTU21D;54385;53.516;49.456;2023-03-30T04:18:35;6.79;57.26
67555;HTU21D;54385;53.516;49.456;2023-03-30T04:21:04;6.82;57.19
67555;HTU21D;54385;53.516;49.456;2023-03-30T04:23:35;6.90;57.04
67555;HTU21D;54385;53.516;49.456;2023-03-30T04:26:06;6.98;56.53
67555;HTU21D;54385;53.516;49.456;2023-03-30T04:28:34;7.00;56.90
67555;HTU21D;54385;53.516;49.456;2023-03-30T04:31:03;6.95;56.37
67555;HTU21D;54385;53.516;49.456;2023-03-30T04:33:30;7.01;56.14
67555;HTU21D;54385;53.516;49.456;2023-03-30T04:36:04;7.12;55.63
67555;HTU21D;54385;53.516;49.456;2023-03-30T04:38:31;7.08;55.97
67555;HTU21D;54385;53.516;49.456;2023-03-30T04:40:59;7.04;56.42
67555;HTU21D;54385;53.516;49.456;2023-03-30T04:43:27;7.07;55.36
67555;HTU21D;54385;53.516;49.456;2023-03-30T04:45:55;7.15;55.87
67555;HTU21D;54385;53.516;49.456;2023-03-30T04:48:22;7.11;55.55
67555;HTU21D;54385;53.516;49.456;2023-03-30T04:50:50;7.19;55.45
67555;HTU21D;54385;53.516;49.456;2023-03-30T04:53:22;7.22;54.94
67555;HTU21D;54385;53.516;49.456;2023-03-30T04:55:49;7.26;54.94
67555;HTU21D;54385;53.516;49.456;2023-03-30T04:58:33;7.38;54.22
67555;HTU21D;54385;53.516;49.456;2023-03-30T05:01:00;7.50;54.60
67555;HTU21D;54385;53.516;49.456;2023-03-30T05:03:28;7.47;53.91
67555;HTU21D;54385;53.516;49.456;2023-03-30T05:05:55;7.53;54.01
67555;HTU21D;54385;53.516;49.456;2023-03-30T05:08:22;7.73;53.88
67555;HTU21D;54385;53.516;49.456;2023-03-30T05:10:49;7.81;53.14
67555;HTU21D;54385;53.516;49.456;2023-03-30T05:13:16;7.83;53.22
67555;HTU21D;54385;53.516;49.456;2023-03-30T05:15:42;7.75;52.71
67555;HTU21D;54385;53.516;49.456;2023-03-30T05:18:10;7.83;52.76
67555;HTU21D;54385;53.516;49.456;2023-03-30T05:20:39;7.88;52.64
67555;HTU21D;54385;53.516;49.456;2023-03-30T05:23:06;7.91;52.56
67555;HTU21D;54385;53.516;49.456;2023-03-30T05:25:33;7.88;52.38
67555;HTU21D;54385;53.516;49.456;2023-03-30T05:28:01;7.86;52.27
67555;HTU21D;54385;53.516;49.456;2023-03-30T05:30:33;7.90;52.63
67555;HTU21D;54385;53.516;49.456;2023-03-30T05:33:00;7.97;52.09
67555;HTU21D;54385;53.516;49.456;2023-03-30T05:35:26;7.89;52.07
67555;HTU21D;54385;53.516;49.456;2023-03-30T05:37:53;7.91;52.12
67555;HTU21D;54385;53.516;49.456;2023-03-30T05:40:20;7.99;52.31
67555;HTU21D;54385;53.516;49.456;2023-03-30T05:42:50;8.17;51.84
67555;HTU21D;54385;53.516;49.456;2023-03-30T05:45:17;8.27;51.44
67555;HTU21D;54385;53.516;49.456;2023-03-30T05:47:43;8.41;51.73
67555;HTU21D;54385;53.516;49.456;2023-03-30T05:50:11;8.60;50.87
67555;HTU21D;54385;53.516;49.456;2023-03-30T05:52:38;8.65;50.80
67555;HTU21D;54385;53.516;49.456;2023-03-30T05:55:05;8.67;51.24
67555;HTU21D;54385;53.516;49.456;2023-03-30T05:57:32;8.82;50.40
67555;HTU21D;54385;53.516;49.456;2023-03-30T05:59:59;8.93;49.82
67555;HTU21D;54385;53.516;49.456;2023-03-30T06:02:25;9.08;50.20
67555;HTU21D;54385;53.516;49.456;2023-03-30T06:04:52;9.22;49.16
67555;HTU21D;54385;53.516;49.456;2023-03-30T06:07:19;9.21;48.76
67555;HTU21D;54385;53.516;49.456;2023-03-30T06:09:46;9.08;48.76
67555;HTU21D;54385;53.516;49.456;2023-03-30T06:12:13;9.15;49.13
67555;HTU21D;54385;53.516;49.456;2023-03-30T06:14:41;9.03;49.51
67555;HTU21D;54385;53.516;49.456;2023-03-30T06:17:08;9.04;49.83
67555;HTU21D;54385;53.516;49.456;2023-03-30T06:19:38;9.06;49.26
67555;HTU21D;54385;53.516;49.456;2023-03-30T06:22:05;9.06;49.06
67555;HTU21D;54385;53.516;49.456;2023-03-30T06:24:32;9.09;49.00
67555;HTU21D;54385;53.516;49.456;2023-03-30T06:26:58;9.26;48.79
67555;HTU21D;54385;53.516;49.456;2023-03-30T06:29:29;9.24;48.48
67555;HTU21D;54385;53.516;49.456;2023-03-30T06:31:56;9.33;48.82
67555;HTU21D;54385;53.516;49.456;2023-03-30T06:34:24;9.47;48.82
67555;HTU21D;54385;53.516;49.456;2023-03-30T06:36:51;9.50;47.99
67555;HTU21D;54385;53.516;49.456;2023-03-30T06:39:19;9.63;48.31
67555;HTU21D;54385;53.516;49.456;2023-03-30T06:41:47;9.75;47.50
67555;HTU21D;54385;53.516;49.456;2023-03-30T06:44:14;9.80;47.63
67555;HTU21D;54385;53.516;49.456;2023-03-30T06:46:41;9.59;48.16
67555;HTU21D;54385;53.516;49.456;2023-03-30T06:49:10;9.74;47.83
67555;HTU21D;54385;53.516;49.456;2023-03-30T06:51:38;9.95;47.35
67555;HTU21D;54385;53.516;49.456;2023-03-30T06:54:04;9.94;47.79
67555;HTU21D;54385;53.516;49.456;2023-03-30T06:56:30;9.97;46.76
67555;HTU21D;54385;53.516;49.456;2023-03-30T06:58:57;10.09;46.68
67555;HTU21D;54385;53.516;49.456;2023-03-30T07:01:23;9.99;46.81
67555;HTU21D;54385;53.516;49.456;2023-03-30T07:03:52;10.14;46.65
67555;HTU21D;54385;53.516;49.456;2023-03-30T07:06:19;10.36;46.35
67555;HTU21D;54385;53.516;49.456;2023-03-30T07:08:46;10.44;46.23
67555;HTU21D;54385;53.516;49.456;2023-03-30T07:11:13;10.27;45.59
67555;HTU21D;54385;53.516;49.456;2023-03-30T07:13:40;10.38;46.11
67555;HTU21D;54385;53.516;49.456;2023-03-30T07:16:07;10.53;46.01
67555;HTU21D;54385;53.516;49.456;2023-03-30T07:18:33;10.81;45.83
67555;HTU21D;54385;53.516;49.456;2023-03-30T07:21:00;10.80;45.10
67555;HTU21D;54385;53.516;49.456;2023-03-30T07:23:26;10.85;45.36
67555;HTU21D;54385;53.516;49.456;2023-03-30T07:25:53;10.86;45.16
67555;HTU21D;54385;53.516;49.456;2023-03-30T07:28:19;10.98;44.99
67555;HTU21D;54385;53.516;49.456;2023-03-30T07:30:46;11.08;44.69
67555;HTU21D;54385;53.516;49.456;2023-03-30T07:33:13;11.08;44.41
67555;HTU21D;54385;53.516;49.456;2023-03-30T07:35:46;11.01;43.84
67555;HTU21D;54385;53.516;49.456;2023-03-30T07:38:13;10.89;44.87
67555;HTU21D;54385;53.516;49.456;2023-03-30T07:40:39;11.17;44.74
67555;HTU21D;54385;53.516;49.456;2023-03-30T07:43:06;11.20;43.90
67555;HTU21D;54385;53.516;49.456;2023-03-30T07:45:33;11.33;43.94
67555;HTU21D;54385;53.516;49.456;2023-03-30T07:48:00;11.56;44.38
67555;HTU21D;54385;53.516;49.456;2023-03-30T07:50:26;11.83;43.25
67555;HTU21D;54385;53.516;49.456;2023-03-30T07:52:53;12.03;42.93
67555;HTU21D;54385;53.516;49.456;2023-03-30T07:55:19;12.03;42.58
67555;HTU21D;54385;53.516;49.456;2023-03-30T07:57:46;12.21;42.18
67555;HTU21D;54385;53.516;49.456;2023-03-30T08:00:16;12.20;42.38
67555;HTU21D;54385;53.516;49.456;2023-03-30T08:02:42;12.25;41.97
67555;HTU21D;54385;53.516;49.456;2023-03-30T08:05:09;12.22;42.13
67555;HTU21D;54385;53.516;49.456;2023-03-30T08:07:36;12.18;41.88
67555;HTU21D;54385;53.516;49.456;2023-03-30T08:10:03;12.26;42.12
67555;HTU21D;54385;53.516;49.456;2023-03-30T08:12:30;12.31;41.94
67555;HTU21D;54385;53.516;49.456;2023-03-30T08:14:56;12.48;42.36
67555;HTU21D;54385;53.516;49.456;2023-03-30T08:17:23;12.70;41.33
67555;HTU21D;54385;53.516;49.456;2023-03-30T08:19:50;12.67;41.53
67555;HTU21D;54385;53.516;49.456;2023-03-30T08:22:16;12.75;41.37
67555;HTU21D;54385;53.516;49.456;2023-03-30T08:24:43;12.81;41.10
67555;HTU21D;54385;53.516;49.456;2023-03-30T08:27:10;13.02;40.77
67555;HTU21D;54385;53.516;49.456;2023-03-30T08:29:36;13.04;40.63
67555;HTU21D;54385;53.516;49.456;2023-03-30T08:32:03;12.99;40.54
67555;HTU21D;54385;53.516;49.456;2023-03-30T08:34:29;13.01;40.30
67555;HTU21D;54385;53.516;49.456;2023-03-30T08:36:56;12.92;39.91
67555;HTU21D;54385;53.516;49.456;2023-03-30T08:39:23;12.72;40.89
67555;HTU21D;54385;53.516;49.456;2023-03-30T08:42:25;12.75;41.35
67555;HTU21D;54385;53.516;49.456;2023-03-30T08:44:57;12.96;40.75
67555;HTU21D;54385;53.516;49.456;2023-03-30T08:47:32;13.01;39.91
67555;HTU21D;54385;53.516;49.456;2023-03-30T08:52:37;13.25;40.12
67555;HTU21D;54385;53.516;49.456;2023-03-30T08:55:20;13.35;40.04
67555;HTU21D;54385;53.516;49.456;2023-03-30T08:57:55;13.59;39.60
67555;HTU21D;54385;53.516;49.456;2023-03-30T09:01:15;13.70;38.84
67555;HTU21D;54385;53.516;49.456;2023-03-30T09:09:18;13.66;38.78
67555;HTU21D;54385;53.516;49.456;2023-03-30T09:11:50;13.77;38.91
67555;HTU21D;54385;53.516;49.456;2023-03-30T09:14:49;14.06;37.88
67555;HTU21D;54385;53.516;49.456;2023-03-30T09:17:34;14.14;37.91
67555;HTU21D;54385;53.516;49.456;2023-03-30T09:20:12;14.30;37.37
67555;HTU21D;54385;53.516;49.456;2023-03-30T09:22:43;14.39;37.25
67555;HTU21D;54385;53.516;49.456;2023-03-30T09:28:21;14.24;37.55
67555;HTU21D;54385;53.516;49.456;2023-03-30T09:31:17;13.98;38.82
67555;HTU21D;54385;53.516;49.456;2023-03-30T09:34:04;14.07;38.03
67555;HTU21D;54385;53.516;49.456;2023-03-30T09:39:35;14.04;38.45
67555;HTU21D;54385;53.516;49.456;2023-03-30T09:42:17;14.10;37.90
67555;HTU21D;54385;53.516;49.456;2023-03-30T09:47:34;13.98;38.70
67555;HTU21D;54385;53.516;49.456;2023-03-30T09:50:10;14.17;38.08
67555;HTU21D;54385;53.516;49.456;2023-03-30T09:52:41;14.10;38.39
67555;HTU21D;54385;53.516;49.456;2023-03-30T09:57:51;14.26;38.54
67555;HTU21D;54385;53.516;49.456;2023-03-30T10:00:24;14.05;38.16
67555;HTU21D;54385;53.516;49.456;2023-03-30T10:03:01;14.09;38.75
67555;HTU21D;54385;53.516;49.456;2023-03-30T10:05:30;14.24;38.46
67555;HTU21D;54385;53.516;49.456;2023-03-30T10:08:00;14.42;38.33
67555;HTU21D;54385;53.516;49.456;2023-03-30T10:10:34;14.72;37.74
67555;HTU21D;54385;53.516;49.456;2023-03-30T10:13:11;15.13;36.73
67555;HTU21D;54385;53.516;49.456;2023-03-30T10:15:40;15.40;36.62
67555;HTU21D;54385;53.516;49.456;2023-03-30T10:20:52;15.82;34.59
67555;HTU21D;54385;53.516;49.456;2023-03-30T10:23:20;15.87;35.53
67555;HTU21D;54385;53.516;49.456;2023-03-30T10:25:49;16.01;35.34
67555;HTU21D;54385;53.516;49.456;2023-03-30T10:28:19;16.17;34.96
67555;HTU21D;54385;53.516;49.456;2023-03-30T10:30:54;16.10;34.41
67555;HTU21D;54385;53.516;49.456;2023-03-30T10:33:22;16.18;34.48
67555;HTU21D;54385;53.516;49.456;2023-03-30T10:35:52;16.50;34.55
67555;HTU21D;54385;53.516;49.456;2023-03-30T10:38:22;16.84;34.14
67555;HTU21D;54385;53.516;49.456;2023-03-30T10:40:55;17.41;32.93
67555;HTU21D;54385;53.516;49.456;2023-03-30T10:43:31;17.19;32.59
67555;HTU21D;54385;53.516;49.456;2023-03-30T10:46:07;16.90;32.73
67555;HTU21D;54385;53.516;49.456;2023-03-30T10:49:06;17.21;32.54
67555;HTU21D;54385;53.516;49.456;2023-03-30T10:52:01;17.49;31.61
67555;HTU21D;54385;53.516;49.456;2023-03-30T10:55:25;17.40;32.15
67555;HTU21D;54385;53.516;49.456;2023-03-30T11:01:10;18.20;30.52
67555;HTU21D;54385;53.516;49.456;2023-03-30T11:03:44;18.12;31.42
67555;HTU21D;54385;53.516;49.456;2023-03-30T11:06:18;17.85;31.73
67555;HTU21D;54385;53.516;49.456;2023-03-30T11:08:48;17.80;32.48
67555;HTU21D;54385;53.516;49.456;2023-03-30T11:11:21;17.50;33.47
67555;HTU21D;54385;53.516;49.456;2023-03-30T11:13:59;17.37;32.51
67555;HTU21D;54385;53.516;49.456;2023-03-30T11:17:03;17.36;33.21
67555;HTU21D;54385;53.516;49.456;2023-03-30T11:19:45;17.04;33.63
67555;HTU21D;54385;53.516;49.456;2023-03-30T11:22:33;16.90;33.90
67555;HTU21D;54385;53.516;49.456;2023-03-30T11:25:04;16.63;34.83
67555;HTU21D;54385;53.516;49.456;2023-03-30T11:28:30;16.66;34.95
67555;HTU21D;54385;53.516;49.456;2023-03-30T11:30:42;16.60;34.76
67555;HTU21D;54385;53.516;49.456;2023-03-30T11:33:26;16.44;35.28
67555;HTU21D;54385;53.516;49.456;2023-03-30T11:36:01;16.49;35.06
67555;HTU21D;54385;53.516;49.456;2023-03-30T11:38:47;16.15;35.68
67555;HTU21D;54385;53.516;49.456;2023-03-30T11:41:35;16.00;36.62
67555;HTU21D;54385;53.516;49.456;2023-03-30T11:44:01;15.84;36.81
67555;HTU21D;54385;53.516;49.456;2023-03-30T11:54:52;15.65;37.43
67555;HTU21D;54385;53.516;49.456;2023-03-30T11:57:36;15.58;38.07
67555;HTU21D;54385;53.516;49.456;2023-03-30T12:00:23;15.42;38.44
67555;HTU21D;54385;53.516;49.456;2023-03-30T12:03:06;15.48;38.27
67555;HTU21D;54385;53.516;49.456;2023-03-30T12:05:39;15.70;38.13
67555;HTU21D;54385;53.516;49.456;2023-03-30T12:08:21;16.08;37.72
67555;HTU21D;54385;53.516;49.456;2023-03-30T12:11:05;16.05;37.14
67555;HTU21D;54385;53.516;49.456;2023-03-30T12:13:35;15.73;37.88
67555;HTU21D;54385;53.516;49.456;2023-03-30T12:16:07;15.69;38.14
67555;HTU21D;54385;53.516;49.456;2023-03-30T12:19:28;15.80;37.79
67555;HTU21D;54385;53.516;49.456;2023-03-30T12:26:44;15.67;38.51
67555;HTU21D;54385;53.516;49.456;2023-03-30T12:29:12;15.51;38.78
67555;HTU21D;54385;53.516;49.456;2023-03-30T12:34:22;15.17;39.92
67555;HTU21D;54385;53.516;49.456;2023-03-30T12:36:57;14.96;40.29
67555;HTU21D;54385;53.516;49.456;2023-03-30T12:42:09;14.71;41.00
67555;HTU21D;54385;53.516;49.456;2023-03-30T12:47:51;14.32;41.95
67555;HTU21D;54385;53.516;49.456;2023-03-30T12:50:44;14.17;41.90
67555;HTU21D;54385;53.516;49.456;2023-03-30T12:58:58;14.14;42.81
67555;HTU21D;54385;53.516;49.456;2023-03-30T13:01:57;13.98;43.08
67555;HTU21D;54385;53.516;49.456;2023-03-30T13:04:34;13.70;43.68
67555;HTU21D;54385;53.516;49.456;2023-03-30T13:07:05;13.69;43.64
67555;HTU21D;54385;53.516;49.456;2023-03-30T13:10:38;13.60;44.29
67555;HTU21D;54385;53.516;49.456;2023-03-30T13:12:39;13.64;43.98
67555;HTU21D;54385;53.516;49.456;2023-03-30T13:17:48;13.50;44.54
67555;HTU21D;54385;53.516;49.456;2023-03-30T13:20:18;13.50;44.70
67555;HTU21D;54385;53.516;49.456;2023-03-30T13:31:41;13.01;46.89
67555;HTU21D;54385;53.516;49.456;2023-03-30T13:45:57;12.79;47.66
67555;HTU21D;54385;53.516;49.456;2023-03-30T13:48:38;12.71;47.76
67555;HTU21D;54385;53.516;49.456;2023-03-30T13:51:13;12.77;47.58
67555;HTU21D;54385;53.516;49.456;2023-03-30T13:54:05;12.80;48.02
67555;HTU21D;54385;53.516;49.456;2023-03-30T13:56:35;12.85;47.54
67555;HTU21D;54385;53.516;49.456;2023-03-30T13:59:14;12.79;47.96
67555;HTU21D;54385;53.516;49.456;2023-03-30T14:01:46;12.85;47.83
67555;HTU21D;54385;53.516;49.456;2023-03-30T14:04:14;12.93;47.47
67555;HTU21D;54385;53.516;49.456;2023-03-30T14:06:44;12.92;47.73
67555;HTU21D;54385;53.516;49.456;2023-03-30T14:09:18;12.90;47.97
67555;HTU21D;54385;53.516;49.456;2023-03-30T14:11:48;12.69;48.23
67555;HTU21D;54385;53.516;49.456;2023-03-30T14:14:17;12.77;48.37
67555;HTU21D;54385;53.516;49.456;2023-03-30T14:16:48;12.80;48.36
67555;HTU21D;54385;53.516;49.456;2023-03-30T14:19:23;12.79;48.32
67555;HTU21D;54385;53.516;49.456;2023-03-30T14:21:55;12.75;48.43
67555;HTU21D;54385;53.516;49.456;2023-03-30T14:24:31;12.70;48.74
67555;HTU21D;54385;53.516;49.456;2023-03-30T14:27:11;12.58;49.27
67555;HTU21D;54385;53.516;49.456;2023-03-30T14:29:46;12.59;49.19
67555;HTU21D;54385;53.516;49.456;2023-03-30T14:32:14;12.55;49.21
67555;HTU21D;54385;53.516;49.456;2023-03-30T14:34:53;12.46;49.50
67555;HTU21D;54385;53.516;49.456;2023-03-30T14:37:21;12.42;49.59
67555;HTU21D;54385;53.516;49.456;2023-03-30T14:39:53;12.25;49.82
67555;HTU21D;54385;53.516;49.456;2023-03-30T14:42:22;12.14;49.95
67555;HTU21D;54385;53.516;49.456;2023-03-30T14:44:52;12.13;50.36
67555;HTU21D;54385;53.516;49.456;2023-03-30T14:47:23;12.13;50.15
67555;HTU21D;54385;53.516;49.456;2023-03-30T14:49:56;12.12;50.35
67555;HTU21D;54385;53.516;49.456;2023-03-30T14:52:31;11.98;50.42
67555;HTU21D;54385;53.516;49.456;2023-03-30T14:54:58;11.86;50.76
67555;HTU21D;54385;53.516;49.456;2023-03-30T14:57:24;11.85;50.64
67555;HTU21D;54385;53.516;49.456;2023-03-30T14:59:57;11.92;50.69
67555;HTU21D;54385;53.516;49.456;2023-03-30T15:02:29;11.89;50.76
67555;HTU21D;54385;53.516;49.456;2023-03-30T15:04:57;11.84;50.97
67555;HTU21D;54385;53.516;49.456;2023-03-30T15:07:29;11.78;50.79
67555;HTU21D;54385;53.516;49.456;2023-03-30T15:09:58;11.79;50.76
67555;HTU21D;54385;53.516;49.456;2023-03-30T15:12:28;11.81;50.80
67555;HTU21D;54385;53.516;49.456;2023-03-30T15:15:00;11.71;51.01
67555;HTU21D;54385;53.516;49.456;2023-03-30T15:17:28;11.72;51.20
67555;HTU21D;54385;53.516;49.456;2023-03-30T15:19:57;11.64;51.21
67555;HTU21D;54385;53.516;49.456;2023-03-30T15:22:47;11.51;51.52
67555;HTU21D;54385;53.516;49.456;2023-03-30T15:25:19;11.49;51.55
67555;HTU21D;54385;53.516;49.456;2023-03-30T15:28:17;11.52;51.92
67555;HTU21D;54385;53.516;49.456;2023-03-30T15:30:52;11.55;51.54
67555;HTU21D;54385;53.516;49.456;2023-03-30T15:33:43;11.44;51.63
67555;HTU21D;54385;53.516;49.456;2023-03-30T15:38:50;11.40;51.62
67555;HTU21D;54385;53.516;49.456;2023-03-30T15:41:20;11.42;51.55
67555;HTU21D;54385;53.516;49.456;2023-03-30T15:44:08;11.44;51.67
67555;HTU21D;54385;53.516;49.456;2023-03-30T15:46:38;11.44;51.77
67555;HTU21D;54385;53.516;49.456;2023-03-30T15:49:12;11.45;51.75
67555;HTU21D;54385;53.516;49.456;2023-03-30T15:51:57;11.44;52.19
67555;HTU21D;54385;53.516;49.456;2023-03-30T15:54:40;11.36;52.01
67555;HTU21D;54385;53.516;49.456;2023-03-30T15:59:45;11.25;52.13
67555;HTU21D;54385;53.516;49.456;2023-03-30T16:02:20;11.28;52.46
67555;HTU21D;54385;53.516;49.456;2023-03-30T16:04:46;11.25;52.59
67555;HTU21D;54385;53.516;49.456;2023-03-30T16:07:16;11.28;52.51
67555;HTU21D;54385;53.516;49.456;2023-03-30T16:09:43;11.24;52.71
67555;HTU21D;54385;53.516;49.456;2023-03-30T16:12:17;11.20;52.70
67555;HTU21D;54385;53.516;49.456;2023-03-30T16:14:46;11.23;52.59
67555;HTU21D;54385;53.516;49.456;2023-03-30T16:17:14;11.17;52.69
67555;HTU21D;54385;53.516;49.456;2023-03-30T16:19:42;11.14;52.86
67555;HTU21D;54385;53.516;49.456;2023-03-30T16:22:10;11.13;53.03
67555;HTU21D;54385;53.516;49.456;2023-03-30T16:24:38;11.09;52.82
67555;HTU21D;54385;53.516;49.456;2023-03-30T16:27:05;11.11;52.95
67555;HTU21D;54385;53.516;49.456;2023-03-30T16:29:32;11.12;52.91
67555;HTU21D;54385;53.516;49.456;2023-03-30T16:31:59;11.09;52.97
67555;HTU21D;54385;53.516;49.456;2023-03-30T16:34:27;11.09;52.86
67555;HTU21D;54385;53.516;49.456;2023-03-30T16:36:54;11.09;52.74
67555;HTU21D;54385;53.516;49.456;2023-03-30T16:39:25;11.13;52.91
67555;HTU21D;54385;53.516;49.456;2023-03-30T16:41:53;11.11;52.74
67555;HTU21D;54385;53.516;49.456;2023-03-30T16:44:22;11.05;52.82
67555;HTU21D;54385;53.516;49.456;2023-03-30T16:46:50;11.05;52.98
67555;HTU21D;54385;53.516;49.456;2023-03-30T16:49:20;11.00;53.21
67555;HTU21D;54385;53.516;49.456;2023-03-30T16:51:47;11.02;53.04
67555;HTU21D;54385;53.516;49.456;2023-03-30T16:54:14;11.03;52.88
67555;HTU21D;54385;53.516;49.456;2023-03-30T16:56:40;11.01;53.11
67555;HTU21D;54385;53.516;49.456;2023-03-30T16:59:20;10.94;53.25
67555;HTU21D;54385;53.516;49.456;2023-03-30T17:01:53;10.94;53.23
67555;HTU21D;54385;53.516;49.456;2023-03-30T17:04:28;10.88;53.35
67555;HTU21D;54385;53.516;49.456;2023-03-30T17:07:08;10.79;53.56
67555;HTU21D;54385;53.516;49.456;2023-03-30T17:09:41;10.79;53.72
67555;HTU21D;54385;53.516;49.456;2023-03-30T17:12:13;10.79;53.77
67555;HTU21D;54385;53.516;49.456;2023-03-30T17:14:40;10.84;53.84
67555;HTU21D;54385;53.516;49.456;2023-03-30T17:17:06;10.89;53.57
67555;HTU21D;54385;53.516;49.456;2023-03-30T17:19:33;10.96;53.30
67555;HTU21D;54385;53.516;49.456;2023-03-30T17:21:59;10.84;53.49
67555;HTU21D;54385;53.516;49.456;2023-03-30T17:24:26;10.83;53.85
67555;HTU21D;54385;53.516;49.456;2023-03-30T17:26:58;10.75;53.92
67555;HTU21D;54385;53.516;49.456;2023-03-30T17:29:25;10.67;53.98